createdAt,value
2022-08-10T00:02:00.931Z,1.40
2022-08-10T00:04:29.034Z,1.30
2022-08-10T00:07:03.840Z,1.33
2022-08-10T00:09:50.725Z,1.27
2022-08-10T00:12:53.399Z,1.53
2022-08-10T00:15:52.464Z,1.47
2022-08-10T00:18:34.815Z,1.60
2022-08-10T00:21:05.333Z,1.50
2022-08-10T00:23:40.851Z,1.53
2022-08-10T00:26:09.216Z,1.53
2022-08-10T00:28:45.859Z,1.73
2022-08-10T00:31:14.016Z,1.60
2022-08-10T00:33:48.854Z,1.40
2022-08-10T00:36:16.945Z,1.30
2022-08-10T00:38:51.871Z,1.43
2022-08-10T00:41:19.929Z,1.60
2022-08-10T00:43:55.889Z,1.63
2022-08-10T00:46:23.939Z,1.50
2022-08-10T00:49:00.151Z,1.57
2022-08-10T00:51:32.474Z,1.60
2022-08-10T00:54:23.915Z,1.70
2022-08-10T00:57:17.646Z,1.53
2022-08-10T00:59:57.746Z,1.70
2022-08-10T01:02:28.303Z,1.70
2022-08-10T01:05:03.135Z,1.80
2022-08-10T01:07:59.906Z,1.70
2022-08-10T01:10:43.151Z,1.33
2022-08-10T01:13:30.962Z,1.70
2022-08-10T01:16:06.225Z,1.57
2022-08-10T01:18:54.911Z,1.60
2022-08-10T01:21:59.763Z,1.60
2022-08-10T01:25:20.929Z,1.60
2022-08-10T01:27:56.680Z,1.60
2022-08-10T01:30:35.892Z,1.67
2022-08-10T01:33:09.568Z,1.50
2022-08-10T01:35:48.962Z,1.50
2022-08-10T01:38:20.441Z,1.50
2022-08-10T01:41:02.907Z,1.50
2022-08-10T01:43:32.979Z,1.77
2022-08-10T01:46:11.926Z,1.70
2022-08-10T01:48:42.602Z,1.80
2022-08-10T01:51:21.944Z,1.60
2022-08-10T01:53:53.061Z,1.70
2022-08-10T01:56:30.986Z,1.67
2022-08-10T01:59:02.268Z,1.87
2022-08-10T02:01:45.980Z,1.90
2022-08-10T02:04:15.229Z,1.60
2022-08-10T02:06:52.946Z,1.90
2022-08-10T02:09:25.065Z,1.53
2022-08-10T02:12:08.950Z,1.70
2022-08-10T02:14:41.665Z,1.77
2022-08-10T02:18:00.178Z,1.90
2022-08-10T02:20:12.170Z,2.10
2022-08-10T02:22:48.121Z,2.00
2022-08-10T02:25:41.066Z,2.30
2022-08-10T02:28:29.800Z,1.80
2022-08-10T02:31:02.589Z,2.30
2022-08-10T02:33:56.712Z,2.27
2022-08-10T02:36:28.900Z,2.00
2022-08-10T02:39:08.037Z,2.27
2022-08-10T02:45:14.003Z,2.07
2022-08-10T02:45:19.721Z,2.50
2022-08-10T02:47:52.071Z,2.03
2022-08-10T02:50:33.972Z,2.40
2022-08-10T02:53:06.651Z,2.50
2022-08-10T02:55:48.997Z,2.50
2022-08-10T02:58:29.073Z,2.20
2022-08-10T03:01:05.031Z,2.27
2022-08-10T03:03:38.421Z,2.33
2022-08-10T03:06:19.989Z,2.40
2022-08-10T03:08:48.416Z,2.50
2022-08-10T03:12:35.464Z,2.87
2022-08-10T03:14:21.800Z,2.57
2022-08-10T03:16:59.026Z,2.63
2022-08-10T03:20:34.422Z,2.90
2022-08-10T03:22:26.111Z,3.10
2022-08-10T03:24:55.721Z,2.80
2022-08-10T03:27:31.011Z,2.73
2022-08-10T03:30:23.291Z,3.10
2022-08-10T03:32:55.011Z,3.37
2022-08-10T03:35:23.745Z,3.73
2022-08-10T03:38:00.340Z,3.40
2022-08-10T03:40:45.454Z,3.23
2022-08-10T03:43:25.031Z,3.10
2022-08-10T03:45:56.738Z,3.40
2022-08-10T03:48:48.422Z,2.97
2022-08-10T03:51:18.974Z,3.17
2022-08-10T03:54:04.398Z,2.90
2022-08-10T03:56:36.179Z,3.37
2022-08-10T03:59:12.019Z,3.20
2022-08-10T04:02:47.060Z,2.87
2022-08-10T04:04:36.101Z,3.60
2022-08-10T04:07:05.970Z,3.17
2022-08-10T04:09:55.134Z,3.20
2022-08-10T04:12:31.667Z,3.30
2022-08-10T04:15:06.092Z,3.50
2022-08-10T04:18:03.773Z,3.33
2022-08-10T04:20:36.080Z,3.30
2022-08-10T04:23:08.543Z,3.57
2022-08-10T04:25:47.089Z,3.50
2022-08-10T04:28:15.824Z,3.30
2022-08-10T04:30:52.088Z,3.30
2022-08-10T04:33:23.248Z,3.70
2022-08-10T04:35:59.077Z,3.30
2022-08-10T04:38:28.711Z,3.20
2022-08-10T04:41:05.087Z,3.60
2022-08-10T04:43:33.290Z,4.13
2022-08-10T04:46:14.009Z,4.00
2022-08-10T04:49:01.870Z,3.47
2022-08-10T04:51:37.060Z,3.93
2022-08-10T04:54:08.154Z,4.60
2022-08-10T04:56:46.078Z,3.90
2022-08-10T04:59:14.462Z,3.80
2022-08-10T05:02:28.178Z,4.00
2022-08-10T05:04:44.458Z,8.63
2022-08-10T05:07:21.106Z,7.77
2022-08-10T05:10:02.699Z,4.53
2022-08-10T05:12:48.124Z,4.17
2022-08-10T05:15:18.258Z,3.83
2022-08-10T05:18:08.636Z,5.63
2022-08-10T05:20:38.084Z,4.23
2022-08-10T05:23:14.126Z,4.07
2022-08-10T05:25:42.240Z,4.30
2022-08-10T05:28:18.123Z,4.03
2022-08-10T05:30:46.162Z,5.37
2022-08-10T05:33:21.143Z,4.83
2022-08-10T05:35:57.235Z,5.87
2022-08-10T05:38:34.181Z,7.57
2022-08-10T05:41:03.841Z,5.00
2022-08-10T05:43:40.150Z,4.60
2022-08-10T05:46:19.510Z,4.57
2022-08-10T05:49:01.220Z,4.70
2022-08-10T05:51:30.905Z,4.60
2022-08-10T05:54:07.151Z,7.13
2022-08-10T05:56:53.316Z,4.70
2022-08-10T06:00:11.183Z,4.67
2022-08-10T06:02:30.914Z,5.20
2022-08-10T06:05:13.153Z,5.20
2022-08-10T06:07:45.530Z,4.77
2022-08-10T06:10:35.640Z,4.40
2022-08-10T06:13:34.551Z,4.30
2022-08-10T06:16:28.145Z,4.20
2022-08-10T06:18:57.306Z,4.43
2022-08-10T06:21:32.177Z,4.80
2022-08-10T06:24:02.886Z,4.23
2022-08-10T06:26:37.163Z,4.83
2022-08-10T06:29:08.935Z,4.80
2022-08-10T06:31:49.921Z,4.80
2022-08-10T06:34:23.588Z,3.87
2022-08-10T06:37:00.228Z,4.40
2022-08-10T06:39:36.822Z,4.53
2022-08-10T06:42:21.160Z,4.40
2022-08-10T06:44:55.540Z,4.57
2022-08-10T06:47:37.258Z,4.33
2022-08-10T06:50:11.927Z,5.43
2022-08-10T06:52:47.239Z,4.60
2022-08-10T06:55:16.802Z,4.03
2022-08-10T06:57:59.858Z,4.33
2022-08-10T07:00:37.297Z,4.00
2022-08-10T07:03:10.477Z,4.03
2022-08-10T07:05:51.327Z,4.83
2022-08-10T07:08:22.190Z,4.33
2022-08-10T07:10:59.232Z,3.97
2022-08-10T07:14:14.076Z,4.07
2022-08-10T07:16:35.253Z,3.93
2022-08-10T07:19:12.235Z,3.93
2022-08-10T07:21:42.074Z,7.73
2022-08-10T07:24:18.252Z,4.10
2022-08-10T07:26:51.437Z,3.60
2022-08-10T07:29:53.365Z,3.37
2022-08-10T07:32:17.049Z,4.07
2022-08-10T07:34:55.234Z,4.30
2022-08-10T07:37:26.150Z,4.37
2022-08-10T07:40:04.591Z,3.90
2022-08-10T07:42:34.593Z,3.53
2022-08-10T07:45:10.321Z,3.43
2022-08-10T07:47:52.499Z,3.30
2022-08-10T07:50:35.474Z,3.60
2022-08-10T07:53:08.298Z,3.60
2022-08-10T07:56:03.407Z,3.30
2022-08-10T07:58:35.737Z,3.43
2022-08-10T08:01:10.277Z,3.40
2022-08-10T08:03:39.100Z,3.33
2022-08-10T08:06:17.269Z,3.20
2022-08-10T08:08:46.970Z,2.77
2022-08-10T08:11:29.300Z,2.77
2022-08-10T08:13:58.774Z,3.03
2022-08-10T08:16:34.279Z,3.07
2022-08-10T08:19:26.633Z,3.17
2022-08-10T08:24:07.957Z,2.60
2022-08-10T08:24:52.368Z,2.73
2022-08-10T08:27:28.331Z,3.23
2022-08-10T08:29:56.943Z,2.97
2022-08-10T08:32:34.285Z,3.10
2022-08-10T08:35:05.656Z,2.73
2022-08-10T08:38:28.805Z,2.73
2022-08-10T08:40:36.924Z,2.70
2022-08-10T08:43:31.809Z,2.70
2022-08-10T08:46:18.695Z,2.93
2022-08-10T08:50:07.600Z,2.90
2022-08-10T08:52:18.203Z,2.80
2022-08-10T08:55:52.371Z,2.67
2022-08-10T08:58:05.890Z,2.30
2022-08-10T09:00:59.337Z,2.37
2022-08-10T09:03:48.985Z,3.13
2022-08-10T09:06:39.505Z,2.70
2022-08-10T09:09:43.020Z,2.70
2022-08-10T09:12:40.348Z,2.88
2022-08-10T09:15:39.620Z,2.50
2022-08-10T09:18:18.338Z,2.40
2022-08-10T09:20:52.296Z,2.80
2022-08-10T09:24:05.138Z,2.33
2022-08-10T09:26:23.124Z,2.25
2022-08-10T09:29:12.798Z,4.28
2022-08-10T09:33:06.153Z,3.67
2022-08-10T09:36:20.690Z,2.40
2022-08-10T09:38:02.170Z,2.95
2022-08-10T09:41:01.160Z,2.58
2022-08-10T09:43:51.300Z,2.03
2022-08-10T09:46:44.381Z,2.20
2022-08-10T09:49:25.784Z,2.22
2022-08-10T09:52:22.376Z,3.45
2022-08-10T09:55:02.577Z,3.78
2022-08-10T09:57:49.363Z,3.38
2022-08-10T10:00:27.148Z,2.20
2022-08-10T10:03:17.705Z,2.00
2022-08-10T10:05:56.799Z,2.00
2022-08-10T10:08:42.715Z,2.15
2022-08-10T10:11:35.361Z,2.33
2022-08-10T10:14:23.413Z,2.08
2022-08-10T10:17:03.454Z,2.17
2022-08-10T10:23:07.923Z,2.20
2022-08-10T10:25:51.775Z,1.95
2022-08-10T10:29:06.838Z,2.03
2022-08-10T10:31:34.945Z,2.15
2022-08-10T10:34:15.594Z,1.95
2022-08-10T10:36:52.804Z,1.95
2022-08-10T10:39:27.217Z,2.42
2022-08-10T10:42:42.454Z,2.05
2022-08-10T10:45:17.715Z,2.65
2022-08-10T10:48:07.818Z,2.50
2022-08-10T10:50:45.740Z,2.17
2022-08-10T10:53:27.159Z,2.28
2022-08-10T10:56:15.054Z,2.65
2022-08-10T10:59:33.404Z,2.55
2022-08-10T11:02:02.459Z,2.00
2022-08-10T11:04:44.855Z,1.95
2022-08-10T11:07:31.942Z,1.90
2022-08-10T11:10:32.710Z,1.70
2022-08-10T11:14:26.526Z,2.45
2022-08-10T11:16:31.281Z,2.80
2022-08-10T11:19:15.954Z,2.20
2022-08-10T11:22:05.326Z,1.90
2022-08-10T11:24:50.541Z,1.95
2022-08-10T11:27:26.692Z,1.90
2022-08-10T11:30:11.008Z,4.68
2022-08-10T11:32:48.070Z,1.90
2022-08-10T11:35:37.883Z,1.73
2022-08-10T11:38:32.899Z,2.45
2022-08-10T11:42:09.984Z,1.90
2022-08-10T11:44:12.096Z,1.80
2022-08-10T11:46:55.917Z,1.80
2022-08-10T11:49:32.571Z,1.85
2022-08-10T11:52:13.891Z,1.83
2022-08-10T11:54:45.132Z,1.90
2022-08-10T11:57:23.774Z,1.55
2022-08-10T11:59:58.326Z,2.10
2022-08-10T12:02:40.316Z,2.05
2022-08-10T12:05:12.541Z,2.70
2022-08-10T12:10:02.260Z,2.53
2022-08-10T12:10:42.752Z,2.00
2022-08-10T12:13:23.249Z,2.67
2022-08-10T12:16:03.300Z,1.85
2022-08-10T12:18:52.903Z,1.70
2022-08-10T12:21:46.255Z,2.13
2022-08-10T12:24:30.119Z,1.80
2022-08-10T12:27:04.503Z,1.90
2022-08-10T12:29:45.865Z,1.70
2022-08-10T12:32:25.635Z,2.03
2022-08-10T12:35:08.055Z,1.90
2022-08-10T12:37:51.041Z,2.00
2022-08-10T12:40:35.577Z,2.00
2022-08-10T12:43:12.980Z,2.00
2022-08-10T12:46:15.037Z,1.85
2022-08-10T12:48:51.773Z,1.92
2022-08-10T12:51:33.053Z,1.88
2022-08-10T12:54:08.930Z,1.80
2022-08-10T12:56:45.967Z,1.70
2022-08-10T12:59:15.639Z,1.80
2022-08-10T13:02:09.701Z,1.88
2022-08-10T13:04:42.407Z,1.88
2022-08-10T13:08:25.218Z,2.00
2022-08-10T13:10:10.724Z,1.83
2022-08-10T13:12:48.433Z,1.88
2022-08-10T13:15:45.970Z,2.05
2022-08-10T13:18:19.669Z,1.90
2022-08-10T13:21:20.819Z,2.00
2022-08-10T13:24:08.075Z,1.92
2022-08-10T13:27:22.758Z,1.80
2022-08-10T13:29:39.470Z,1.80
2022-08-10T13:32:11.528Z,1.90
2022-08-10T13:34:50.969Z,1.70
2022-08-10T13:37:24.517Z,1.70
2022-08-10T13:40:03.213Z,1.63
2022-08-10T13:42:35.941Z,1.77
2022-08-10T13:45:17.099Z,1.70
2022-08-10T13:47:50.159Z,1.60
2022-08-10T13:50:35.516Z,1.83
2022-08-10T13:53:14.311Z,1.70
2022-08-10T13:55:56.699Z,1.90
2022-08-10T13:58:30.677Z,1.90
2022-08-10T14:01:08.114Z,1.88
2022-08-10T14:03:39.736Z,1.75
2022-08-10T14:06:19.071Z,1.60
2022-08-10T14:08:50.309Z,1.95
2022-08-10T14:11:29.016Z,1.80
2022-08-10T14:14:00.266Z,1.98
2022-08-10T14:16:36.113Z,2.05
2022-08-10T14:19:13.176Z,1.85
2022-08-10T14:21:55.118Z,1.73
2022-08-10T14:24:26.828Z,2.40
2022-08-10T14:27:12.438Z,2.00
2022-08-10T14:29:44.600Z,2.00
2022-08-10T14:32:22.079Z,2.10
2022-08-10T14:36:18.447Z,2.35
2022-08-10T14:37:56.156Z,2.47
2022-08-10T14:40:28.910Z,2.10
2022-08-10T14:43:13.213Z,2.45
2022-08-10T14:45:48.953Z,2.75
2022-08-10T14:48:31.971Z,2.42
2022-08-10T14:51:03.049Z,2.70
2022-08-10T14:53:42.505Z,2.20
2022-08-10T14:56:14.407Z,2.30
2022-08-10T14:58:58.804Z,2.20
2022-08-10T15:01:59.904Z,1.90
2022-08-10T15:04:33.193Z,2.08
2022-08-10T15:07:12.367Z,2.10
2022-08-10T15:10:01.547Z,1.98
2022-08-10T15:12:34.804Z,1.88
2022-08-10T15:15:16.305Z,2.10
2022-08-10T15:17:52.841Z,1.92
2022-08-10T15:20:31.191Z,1.70
2022-08-10T15:23:30.657Z,1.92
2022-08-10T15:26:11.206Z,1.65
2022-08-10T15:29:21.986Z,2.10
2022-08-10T15:32:03.226Z,2.00
2022-08-10T15:34:49.311Z,1.80
2022-08-10T15:37:36.722Z,1.63
2022-08-10T15:40:25.401Z,1.90
2022-08-10T15:43:20.895Z,1.55
2022-08-10T15:46:00.224Z,2.10
2022-08-10T15:48:40.138Z,1.90
2022-08-10T15:51:18.413Z,2.20
2022-08-10T15:54:02.066Z,1.75
2022-08-10T15:56:36.638Z,2.25
2022-08-10T15:59:16.243Z,1.75
2022-08-10T16:02:03.975Z,1.90
2022-08-10T16:04:56.089Z,2.00
2022-08-10T16:07:46.137Z,2.00
2022-08-10T16:10:28.894Z,2.08
2022-08-10T16:13:01.277Z,1.95
2022-08-10T16:15:38.145Z,2.10
2022-08-10T16:18:10.656Z,2.00
2022-08-10T16:20:54.545Z,1.90
2022-08-10T16:23:34.330Z,2.08
2022-08-10T16:26:14.726Z,2.30
2022-08-10T16:28:48.304Z,2.00
2022-08-10T16:31:27.159Z,2.10
2022-08-10T16:33:58.294Z,2.22
2022-08-10T16:36:45.485Z,2.25
2022-08-10T16:39:57.803Z,2.35
2022-08-10T16:42:18.237Z,2.03
2022-08-10T16:44:54.667Z,2.20
2022-08-10T16:47:32.154Z,2.33
2022-08-10T16:50:05.904Z,2.10
2022-08-10T16:52:43.162Z,2.30
2022-08-10T16:55:23.944Z,2.20
2022-08-10T16:58:13.273Z,2.25
2022-08-10T17:00:42.710Z,2.30
2022-08-10T17:04:04.426Z,2.70
2022-08-10T17:06:16.767Z,1.80
2022-08-10T17:08:56.513Z,2.03
2022-08-10T17:11:30.374Z,2.00
2022-08-10T17:14:07.185Z,2.08
2022-08-10T17:16:38.551Z,2.05
2022-08-10T17:19:21.220Z,1.83
2022-08-10T17:21:59.911Z,1.80
2022-08-10T17:24:48.354Z,2.20
2022-08-10T17:28:13.718Z,2.03
2022-08-10T17:30:33.774Z,2.00
2022-08-10T17:33:07.359Z,2.00
2022-08-10T17:35:44.213Z,2.00
2022-08-10T17:38:17.781Z,1.67
2022-08-10T17:40:59.242Z,2.08
2022-08-10T17:43:46.515Z,1.80
2022-08-10T17:46:26.379Z,1.98
2022-08-10T17:48:56.064Z,1.80
2022-08-10T17:51:32.222Z,1.90
2022-08-10T17:54:02.519Z,2.03
2022-08-10T17:56:41.208Z,2.20
2022-08-10T17:59:17.202Z,1.88
2022-08-10T18:02:01.737Z,1.80
2022-08-10T18:04:41.847Z,2.10
2022-08-10T18:07:18.386Z,2.00
2022-08-10T18:09:52.697Z,1.90
2022-08-10T18:12:38.624Z,1.98
2022-08-10T18:15:12.152Z,1.90
2022-08-10T18:17:55.545Z,1.80
2022-08-10T18:20:38.609Z,1.80
2022-08-10T18:23:15.953Z,1.83
2022-08-10T18:25:54.245Z,1.85
2022-08-10T18:28:25.235Z,2.08
2022-08-10T18:31:02.264Z,1.90
2022-08-10T18:33:35.758Z,1.80
2022-08-10T18:36:13.276Z,2.10
2022-08-10T18:38:47.625Z,1.98
2022-08-10T18:41:26.293Z,2.08
2022-08-10T18:44:12.353Z,1.70
2022-08-10T18:46:53.325Z,2.10
2022-08-10T18:49:30.959Z,1.90
2022-08-10T18:52:11.304Z,1.90
2022-08-10T18:54:46.366Z,2.03
2022-08-10T18:57:34.315Z,1.70
2022-08-10T19:00:11.781Z,1.70
2022-08-10T19:03:02.293Z,2.15
2022-08-10T19:05:48.649Z,1.92
2022-08-10T19:08:55.307Z,1.70
2022-08-10T19:11:35.349Z,2.05
2022-08-10T19:14:16.326Z,1.88
2022-08-10T19:16:56.216Z,1.63
2022-08-10T19:19:43.443Z,2.15
2022-08-10T19:22:24.614Z,1.60
2022-08-10T19:25:09.351Z,1.80
2022-08-10T19:27:51.727Z,1.70
2022-08-10T19:30:37.274Z,1.88
2022-08-10T19:33:21.201Z,2.10
2022-08-10T19:36:09.345Z,1.77
2022-08-10T19:38:50.361Z,1.50
2022-08-10T19:41:32.818Z,1.70
2022-08-10T19:44:19.724Z,1.70
2022-08-10T19:47:01.376Z,1.95
2022-08-10T19:49:41.561Z,1.70
2022-08-10T19:52:26.478Z,2.13
2022-08-10T19:54:59.883Z,1.73
2022-08-10T19:57:42.362Z,1.50
2022-08-10T20:00:21.727Z,1.90
2022-08-10T20:03:17.356Z,1.88
2022-08-10T20:06:13.064Z,1.73
2022-08-10T20:08:58.394Z,1.85
2022-08-10T20:11:44.253Z,1.73
2022-08-10T20:14:26.389Z,1.63
2022-08-10T20:17:02.009Z,1.58
2022-08-10T20:19:52.954Z,1.98
2022-08-10T20:22:35.091Z,1.50
2022-08-10T20:25:18.444Z,1.60
2022-08-10T20:28:01.211Z,2.07
2022-08-10T20:30:41.805Z,1.57
2022-08-10T20:33:12.289Z,1.70
2022-08-10T20:36:00.537Z,1.90
2022-08-10T20:38:35.502Z,1.67
2022-08-10T20:41:19.527Z,1.50
2022-08-10T20:43:57.755Z,1.87
2022-08-10T20:46:37.413Z,1.60
2022-08-10T20:49:22.537Z,1.60
2022-08-10T20:52:02.366Z,1.63
2022-08-10T20:54:36.413Z,1.60
2022-08-10T20:57:54.830Z,1.50
2022-08-10T21:00:31.548Z,1.77
2022-08-10T21:03:33.686Z,1.80
2022-08-10T21:06:35.939Z,1.53
2022-08-10T21:09:28.443Z,1.30
2022-08-10T21:12:18.274Z,1.50
2022-08-10T21:15:03.435Z,1.70
2022-08-10T21:17:58.099Z,1.57
2022-08-10T21:20:54.093Z,1.60
2022-08-10T21:23:46.552Z,1.40
2022-08-10T21:26:29.460Z,1.37
2022-08-10T21:29:21.343Z,1.50
2022-08-10T21:32:07.390Z,1.40
2022-08-10T21:35:00.942Z,1.30
2022-08-10T21:37:43.535Z,1.40
2022-08-10T21:40:35.238Z,1.47
2022-08-10T21:43:44.376Z,1.17
2022-08-10T21:46:54.847Z,1.37
2022-08-10T21:50:12.418Z,1.20
2022-08-10T21:53:07.943Z,1.50
2022-08-10T21:56:14.029Z,1.30
2022-08-10T21:59:16.479Z,1.50
2022-08-10T22:02:11.298Z,1.30
2022-08-10T22:05:04.484Z,1.40
2022-08-10T22:07:51.525Z,1.20
2022-08-10T22:10:49.579Z,1.40
2022-08-10T22:13:37.540Z,1.40
2022-08-10T22:16:36.497Z,1.50
2022-08-10T22:19:24.347Z,1.70
2022-08-10T22:22:37.484Z,1.43
2022-08-10T22:25:39.686Z,1.50
2022-08-10T22:28:31.852Z,1.37
2022-08-10T22:35:05.602Z,1.50
2022-08-10T22:37:59.710Z,1.83
2022-08-10T22:41:00.519Z,1.50
2022-08-10T22:43:50.544Z,1.73
2022-08-10T22:46:45.920Z,1.70
2022-08-10T22:49:22.321Z,1.50
2022-08-10T22:52:01.538Z,1.50
2022-08-10T22:54:53.473Z,1.20
2022-08-10T22:57:46.557Z,1.50
2022-08-10T23:00:17.049Z,1.90
2022-08-10T23:03:00.549Z,1.47
2022-08-10T23:05:34.595Z,1.50
2022-08-10T23:08:29.740Z,1.60
2022-08-10T23:11:03.189Z,1.40
2022-08-10T23:13:39.560Z,1.60
2022-08-10T23:16:32.240Z,1.47
2022-08-10T23:19:17.869Z,1.60
2022-08-10T23:22:13.845Z,1.60
2022-08-10T23:24:52.527Z,1.60
2022-08-10T23:27:37.476Z,1.50
2022-08-10T23:30:17.493Z,1.73
2022-08-10T23:32:49.976Z,1.67
2022-08-10T23:36:29.468Z,1.80
2022-08-10T23:38:22.507Z,1.57
2022-08-10T23:41:04.564Z,1.60
2022-08-10T23:44:00.863Z,1.80
2022-08-10T23:46:32.698Z,1.67
2022-08-10T23:49:03.150Z,1.90
2022-08-10T23:51:56.391Z,1.60
2022-08-10T23:54:27.790Z,1.80
2022-08-10T23:57:05.612Z,1.40
2022-08-10T23:59:34.490Z,1.60
